sensor_id;sensor_type;location;lat;lon;timestamp;P1;durP1;ratioP1;P2;durP2;ratioP2
3667;SDS011;24099;47.102;15.440;2022-12-18T00:01:14;0.40;;;0.40;;
3667;SDS011;24099;47.102;15.440;2022-12-18T00:03:44;0.82;;;0.82;;
3667;SDS011;24099;47.102;15.440;2022-12-18T00:06:13;0.57;;;0.57;;
3667;SDS011;24099;47.102;15.440;2022-12-18T00:08:41;1.58;;;0.93;;
3667;SDS011;24099;47.102;15.440;2022-12-18T00:11:10;0.73;;;0.73;;
3667;SDS011;24099;47.102;15.440;2022-12-18T00:13:41;1.98;;;1.05;;
3667;SDS011;24099;47.102;15.440;2022-12-18T00:16:10;1.25;;;1.15;;
3667;SDS011;24099;47.102;15.440;2022-12-18T00:18:39;0.80;;;0.80;;
3667;SDS011;24099;47.102;15.440;2022-12-18T00:21:08;0.60;;;0.60;;
3667;SDS011;24099;47.102;15.440;2022-12-18T00:23:37;0.70;;;0.70;;
3667;SDS011;24099;47.102;15.440;2022-12-18T00:26:07;0.80;;;0.80;;
3667;SDS011;24099;47.102;15.440;2022-12-18T00:28:41;0.90;;;0.85;;
3667;SDS011;24099;47.102;15.440;2022-12-18T00:31:10;0.88;;;0.88;;
3667;SDS011;24099;47.102;15.440;2022-12-18T00:33:39;1.75;;;0.95;;
3667;SDS011;24099;47.102;15.440;2022-12-18T00:36:09;0.60;;;0.60;;
3667;SDS011;24099;47.102;15.440;2022-12-18T00:38:39;1.70;;;1.00;;
3667;SDS011;24099;47.102;15.440;2022-12-18T00:41:07;1.85;;;1.40;;
3667;SDS011;24099;47.102;15.440;2022-12-18T00:43:36;0.55;;;0.55;;
3667;SDS011;24099;47.102;15.440;2022-12-18T00:46:05;7.65;;;0.70;;
3667;SDS011;24099;47.102;15.440;2022-12-18T00:48:33;1.02;;;0.95;;
3667;SDS011;24099;47.102;15.440;2022-12-18T00:51:01;0.82;;;0.82;;
3667;SDS011;24099;47.102;15.440;2022-12-18T00:53:29;0.75;;;0.75;;
3667;SDS011;24099;47.102;15.440;2022-12-18T00:55:56;0.50;;;0.50;;
3667;SDS011;24099;47.102;15.440;2022-12-18T00:58:24;0.65;;;0.65;;
3667;SDS011;24099;47.102;15.440;2022-12-18T01:00:52;0.95;;;0.95;;
3667;SDS011;24099;47.102;15.440;2022-12-18T01:03:21;0.77;;;0.75;;
3667;SDS011;24099;47.102;15.440;2022-12-18T01:05:50;0.60;;;0.60;;
3667;SDS011;24099;47.102;15.440;2022-12-18T01:08:17;1.08;;;1.05;;
3667;SDS011;24099;47.102;15.440;2022-12-18T01:10:45;0.63;;;0.63;;
3667;SDS011;24099;47.102;15.440;2022-12-18T01:13:13;1.17;;;1.08;;
3667;SDS011;24099;47.102;15.440;2022-12-18T01:15:47;0.50;;;0.50;;
3667;SDS011;24099;47.102;15.440;2022-12-18T01:18:15;0.60;;;0.60;;
3667;SDS011;24099;47.102;15.440;2022-12-18T01:20:45;2.20;;;1.05;;
3667;SDS011;24099;47.102;15.440;2022-12-18T01:23:12;0.82;;;0.82;;
3667;SDS011;24099;47.102;15.440;2022-12-18T01:25:40;1.02;;;1.02;;
3667;SDS011;24099;47.102;15.440;2022-12-18T01:28:09;1.45;;;1.35;;
3667;SDS011;24099;47.102;15.440;2022-12-18T01:30:36;1.83;;;1.73;;
3667;SDS011;24099;47.102;15.440;2022-12-18T01:33:04;0.88;;;0.88;;
3667;SDS011;24099;47.102;15.440;2022-12-18T01:35:32;1.55;;;1.42;;
3667;SDS011;24099;47.102;15.440;2022-12-18T01:38:07;0.47;;;0.47;;
3667;SDS011;24099;47.102;15.440;2022-12-18T01:40:34;0.70;;;0.70;;
3667;SDS011;24099;47.102;15.440;2022-12-18T01:43:03;1.00;;;1.00;;
3667;SDS011;24099;47.102;15.440;2022-12-18T01:45:31;3.20;;;0.80;;
3667;SDS011;24099;47.102;15.440;2022-12-18T01:48:00;1.20;;;1.10;;
3667;SDS011;24099;47.102;15.440;2022-12-18T01:50:30;0.63;;;0.63;;
3667;SDS011;24099;47.102;15.440;2022-12-18T01:53:03;0.80;;;0.75;;
3667;SDS011;24099;47.102;15.440;2022-12-18T01:55:38;1.53;;;1.33;;
3667;SDS011;24099;47.102;15.440;2022-12-18T01:58:17;0.95;;;0.95;;
3667;SDS011;24099;47.102;15.440;2022-12-18T02:00:46;1.30;;;1.20;;
3667;SDS011;24099;47.102;15.440;2022-12-18T02:03:14;1.00;;;0.95;;
3667;SDS011;24099;47.102;15.440;2022-12-18T02:05:46;1.33;;;1.30;;
3667;SDS011;24099;47.102;15.440;2022-12-18T02:08:22;0.70;;;0.70;;
3667;SDS011;24099;47.102;15.440;2022-12-18T02:11:00;0.90;;;0.88;;
3667;SDS011;24099;47.102;15.440;2022-12-18T02:13:36;1.13;;;1.05;;
3667;SDS011;24099;47.102;15.440;2022-12-18T02:16:13;0.52;;;0.52;;
3667;SDS011;24099;47.102;15.440;2022-12-18T02:18:49;1.50;;;1.05;;
3667;SDS011;24099;47.102;15.440;2022-12-18T02:21:23;1.75;;;1.20;;
3667;SDS011;24099;47.102;15.440;2022-12-18T02:24:03;1.27;;;1.17;;
3667;SDS011;24099;47.102;15.440;2022-12-18T02:26:43;0.70;;;0.70;;
3667;SDS011;24099;47.102;15.440;2022-12-18T02:29:15;0.70;;;0.70;;
3667;SDS011;24099;47.102;15.440;2022-12-18T02:31:50;1.15;;;1.05;;
3667;SDS011;24099;47.102;15.440;2022-12-18T02:34:21;0.65;;;0.65;;
3667;SDS011;24099;47.102;15.440;2022-12-18T02:37:05;0.40;;;0.40;;
3667;SDS011;24099;47.102;15.440;2022-12-18T02:39:37;0.63;;;0.63;;
3667;SDS011;24099;47.102;15.440;2022-12-18T02:42:11;1.38;;;1.27;;
3667;SDS011;24099;47.102;15.440;2022-12-18T02:44:43;0.45;;;0.40;;
3667;SDS011;24099;47.102;15.440;2022-12-18T02:47:15;1.00;;;1.00;;
3667;SDS011;24099;47.102;15.440;2022-12-18T02:49:49;0.82;;;0.80;;
3667;SDS011;24099;47.102;15.440;2022-12-18T02:52:29;0.50;;;0.50;;
3667;SDS011;24099;47.102;15.440;2022-12-18T02:55:07;0.77;;;0.77;;
3667;SDS011;24099;47.102;15.440;2022-12-18T02:57:52;0.70;;;0.70;;
3667;SDS011;24099;47.102;15.440;2022-12-18T03:00:29;0.40;;;0.40;;
3667;SDS011;24099;47.102;15.440;2022-12-18T03:03:05;0.50;;;0.50;;
3667;SDS011;24099;47.102;15.440;2022-12-18T03:05:40;1.15;;;1.10;;
3667;SDS011;24099;47.102;15.440;2022-12-18T03:08:14;1.92;;;0.82;;
3667;SDS011;24099;47.102;15.440;2022-12-18T03:10:49;0.60;;;0.60;;
3667;SDS011;24099;47.102;15.440;2022-12-18T03:13:25;0.93;;;0.87;;
3667;SDS011;24099;47.102;15.440;2022-12-18T03:16:00;0.40;;;0.40;;
3667;SDS011;24099;47.102;15.440;2022-12-18T03:18:33;0.77;;;0.77;;
3667;SDS011;24099;47.102;15.440;2022-12-18T03:21:05;0.55;;;0.55;;
3667;SDS011;24099;47.102;15.440;2022-12-18T03:23:38;0.55;;;0.55;;
3667;SDS011;24099;47.102;15.440;2022-12-18T03:26:14;0.60;;;0.60;;
3667;SDS011;24099;47.102;15.440;2022-12-18T03:28:45;0.50;;;0.50;;
3667;SDS011;24099;47.102;15.440;2022-12-18T03:31:18;1.02;;;1.02;;
3667;SDS011;24099;47.102;15.440;2022-12-18T03:33:51;3.92;;;1.48;;
3667;SDS011;24099;47.102;15.440;2022-12-18T03:36:28;0.50;;;0.50;;
3667;SDS011;24099;47.102;15.440;2022-12-18T03:38:57;0.75;;;0.75;;
3667;SDS011;24099;47.102;15.440;2022-12-18T03:41:27;0.65;;;0.65;;
3667;SDS011;24099;47.102;15.440;2022-12-18T03:44:19;7.68;;;0.73;;
3667;SDS011;24099;47.102;15.440;2022-12-18T03:46:54;0.60;;;0.55;;
3667;SDS011;24099;47.102;15.440;2022-12-18T03:49:33;1.45;;;0.60;;
3667;SDS011;24099;47.102;15.440;2022-12-18T03:52:06;1.30;;;1.20;;
3667;SDS011;24099;47.102;15.440;2022-12-18T03:54:39;0.82;;;0.82;;
3667;SDS011;24099;47.102;15.440;2022-12-18T03:57:13;0.90;;;0.90;;
3667;SDS011;24099;47.102;15.440;2022-12-18T03:59:47;1.20;;;1.10;;
3667;SDS011;24099;47.102;15.440;2022-12-18T04:02:23;0.82;;;0.82;;
3667;SDS011;24099;47.102;15.440;2022-12-18T04:04:53;3.92;;;1.00;;
3667;SDS011;24099;47.102;15.440;2022-12-18T04:07:26;1.33;;;1.23;;
3667;SDS011;24099;47.102;15.440;2022-12-18T04:09:56;1.10;;;1.00;;
3667;SDS011;24099;47.102;15.440;2022-12-18T04:12:30;1.55;;;0.63;;
3667;SDS011;24099;47.102;15.440;2022-12-18T04:15:03;0.63;;;0.63;;
3667;SDS011;24099;47.102;15.440;2022-12-18T04:17:32;0.57;;;0.57;;
3667;SDS011;24099;47.102;15.440;2022-12-18T04:20:00;0.80;;;0.80;;
3667;SDS011;24099;47.102;15.440;2022-12-18T04:22:29;1.45;;;0.77;;
3667;SDS011;24099;47.102;15.440;2022-12-18T04:24:59;0.90;;;0.90;;
3667;SDS011;24099;47.102;15.440;2022-12-18T04:27:34;0.50;;;0.50;;
3667;SDS011;24099;47.102;15.440;2022-12-18T04:30:06;0.60;;;0.60;;
3667;SDS011;24099;47.102;15.440;2022-12-18T04:32:35;0.68;;;0.68;;
3667;SDS011;24099;47.102;15.440;2022-12-18T04:35:03;2.60;;;1.00;;
3667;SDS011;24099;47.102;15.440;2022-12-18T04:37:37;0.40;;;0.40;;
3667;SDS011;24099;47.102;15.440;2022-12-18T04:40:05;0.82;;;0.82;;
3667;SDS011;24099;47.102;15.440;2022-12-18T04:42:39;1.17;;;1.08;;
3667;SDS011;24099;47.102;15.440;2022-12-18T04:45:09;0.40;;;0.40;;
3667;SDS011;24099;47.102;15.440;2022-12-18T04:47:36;0.93;;;0.93;;
3667;SDS011;24099;47.102;15.440;2022-12-18T04:50:05;0.75;;;0.55;;
3667;SDS011;24099;47.102;15.440;2022-12-18T04:52:33;0.55;;;0.55;;
3667;SDS011;24099;47.102;15.440;2022-12-18T04:55:01;1.42;;;0.98;;
3667;SDS011;24099;47.102;15.440;2022-12-18T04:57:29;0.70;;;0.70;;
3667;SDS011;24099;47.102;15.440;2022-12-18T04:59:57;1.48;;;1.10;;
3667;SDS011;24099;47.102;15.440;2022-12-18T05:02:26;0.85;;;0.70;;
3667;SDS011;24099;47.102;15.440;2022-12-18T05:04:54;0.40;;;0.40;;
3667;SDS011;24099;47.102;15.440;2022-12-18T05:07:22;1.85;;;0.95;;
3667;SDS011;24099;47.102;15.440;2022-12-18T05:09:50;0.60;;;0.60;;
3667;SDS011;24099;47.102;15.440;2022-12-18T05:12:17;0.70;;;0.70;;
3667;SDS011;24099;47.102;15.440;2022-12-18T05:14:45;1.42;;;1.27;;
3667;SDS011;24099;47.102;15.440;2022-12-18T05:17:13;0.60;;;0.60;;
3667;SDS011;24099;47.102;15.440;2022-12-18T05:19:41;1.15;;;0.80;;
3667;SDS011;24099;47.102;15.440;2022-12-18T05:22:09;0.50;;;0.50;;
3667;SDS011;24099;47.102;15.440;2022-12-18T05:24:37;0.40;;;0.40;;
3667;SDS011;24099;47.102;15.440;2022-12-18T05:27:05;1.40;;;1.15;;
3667;SDS011;24099;47.102;15.440;2022-12-18T05:29:33;0.73;;;0.60;;
3667;SDS011;24099;47.102;15.440;2022-12-18T05:32:01;0.70;;;0.70;;
3667;SDS011;24099;47.102;15.440;2022-12-18T05:34:29;0.73;;;0.73;;
3667;SDS011;24099;47.102;15.440;2022-12-18T05:36:58;0.70;;;0.70;;
3667;SDS011;24099;47.102;15.440;2022-12-18T05:39:25;0.50;;;0.50;;
3667;SDS011;24099;47.102;15.440;2022-12-18T05:41:53;0.50;;;0.43;;
3667;SDS011;24099;47.102;15.440;2022-12-18T05:44:24;4.95;;;0.95;;
3667;SDS011;24099;47.102;15.440;2022-12-18T05:46:52;0.50;;;0.50;;
3667;SDS011;24099;47.102;15.440;2022-12-18T05:49:20;0.90;;;0.90;;
3667;SDS011;24099;47.102;15.440;2022-12-18T05:51:47;0.57;;;0.57;;
3667;SDS011;24099;47.102;15.440;2022-12-18T05:54:17;0.40;;;0.40;;
3667;SDS011;24099;47.102;15.440;2022-12-18T05:56:45;0.43;;;0.43;;
3667;SDS011;24099;47.102;15.440;2022-12-18T05:59:12;1.00;;;1.00;;
3667;SDS011;24099;47.102;15.440;2022-12-18T06:01:40;0.52;;;0.52;;
3667;SDS011;24099;47.102;15.440;2022-12-18T06:04:14;0.70;;;0.70;;
3667;SDS011;24099;47.102;15.440;2022-12-18T06:06:42;3.85;;;1.38;;
3667;SDS011;24099;47.102;15.440;2022-12-18T06:09:10;0.95;;;0.90;;
3667;SDS011;24099;47.102;15.440;2022-12-18T06:11:39;0.90;;;0.90;;
3667;SDS011;24099;47.102;15.440;2022-12-18T06:14:07;1.13;;;1.13;;
3667;SDS011;24099;47.102;15.440;2022-12-18T06:16:36;1.05;;;1.05;;
3667;SDS011;24099;47.102;15.440;2022-12-18T06:19:06;2.13;;;1.02;;
3667;SDS011;24099;47.102;15.440;2022-12-18T06:21:34;0.85;;;0.85;;
3667;SDS011;24099;47.102;15.440;2022-12-18T06:24:02;0.63;;;0.63;;
3667;SDS011;24099;47.102;15.440;2022-12-18T06:26:30;0.60;;;0.60;;
3667;SDS011;24099;47.102;15.440;2022-12-18T06:28:59;0.40;;;0.40;;
3667;SDS011;24099;47.102;15.440;2022-12-18T06:31:27;11.85;;;0.85;;
3667;SDS011;24099;47.102;15.440;2022-12-18T06:33:54;2.55;;;0.77;;
3667;SDS011;24099;47.102;15.440;2022-12-18T06:36:22;1.00;;;0.88;;
3667;SDS011;24099;47.102;15.440;2022-12-18T06:38:50;0.60;;;0.60;;
3667;SDS011;24099;47.102;15.440;2022-12-18T06:41:18;0.65;;;0.60;;
3667;SDS011;24099;47.102;15.440;2022-12-18T06:43:47;1.73;;;0.82;;
3667;SDS011;24099;47.102;15.440;2022-12-18T06:46:16;0.85;;;0.85;;
3667;SDS011;24099;47.102;15.440;2022-12-18T06:48:46;1.13;;;1.10;;
3667;SDS011;24099;47.102;15.440;2022-12-18T06:51:19;1.00;;;0.73;;
3667;SDS011;24099;47.102;15.440;2022-12-18T06:53:48;4.32;;;2.03;;
3667;SDS011;24099;47.102;15.440;2022-12-18T06:56:16;0.90;;;0.90;;
3667;SDS011;24099;47.102;15.440;2022-12-18T06:58:44;1.05;;;0.90;;
3667;SDS011;24099;47.102;15.440;2022-12-18T07:01:12;2.55;;;1.10;;
3667;SDS011;24099;47.102;15.440;2022-12-18T07:03:41;1.88;;;1.70;;
3667;SDS011;24099;47.102;15.440;2022-12-18T07:06:13;1.88;;;1.77;;
3667;SDS011;24099;47.102;15.440;2022-12-18T07:08:41;1.67;;;1.58;;
3667;SDS011;24099;47.102;15.440;2022-12-18T07:11:09;4.03;;;1.38;;
3667;SDS011;24099;47.102;15.440;2022-12-18T07:13:38;1.10;;;1.10;;
3667;SDS011;24099;47.102;15.440;2022-12-18T07:16:06;0.70;;;0.70;;
3667;SDS011;24099;47.102;15.440;2022-12-18T07:18:35;1.45;;;1.35;;
3667;SDS011;24099;47.102;15.440;2022-12-18T07:21:05;1.20;;;1.13;;
3667;SDS011;24099;47.102;15.440;2022-12-18T07:23:34;0.70;;;0.70;;
3667;SDS011;24099;47.102;15.440;2022-12-18T07:26:03;0.63;;;0.63;;
3667;SDS011;24099;47.102;15.440;2022-12-18T07:28:32;2.97;;;1.15;;
3667;SDS011;24099;47.102;15.440;2022-12-18T07:31:02;0.95;;;0.95;;
3667;SDS011;24099;47.102;15.440;2022-12-18T07:33:31;0.80;;;0.80;;
3667;SDS011;24099;47.102;15.440;2022-12-18T07:35:59;0.77;;;0.77;;
3667;SDS011;24099;47.102;15.440;2022-12-18T07:38:28;0.80;;;0.80;;
3667;SDS011;24099;47.102;15.440;2022-12-18T07:40:59;2.13;;;1.15;;
3667;SDS011;24099;47.102;15.440;2022-12-18T07:43:28;1.80;;;1.23;;
3667;SDS011;24099;47.102;15.440;2022-12-18T07:45:55;1.42;;;1.17;;
3667;SDS011;24099;47.102;15.440;2022-12-18T07:48:23;0.95;;;0.95;;
3667;SDS011;24099;47.102;15.440;2022-12-18T07:50:51;1.48;;;1.17;;
3667;SDS011;24099;47.102;15.440;2022-12-18T07:53:19;0.82;;;0.82;;
3667;SDS011;24099;47.102;15.440;2022-12-18T07:55:48;1.23;;;0.90;;
3667;SDS011;24099;47.102;15.440;2022-12-18T07:58:15;0.77;;;0.77;;
3667;SDS011;24099;47.102;15.440;2022-12-18T08:00:44;0.75;;;0.75;;
3667;SDS011;24099;47.102;15.440;2022-12-18T08:03:12;1.15;;;0.90;;
3667;SDS011;24099;47.102;15.440;2022-12-18T08:05:40;0.80;;;0.80;;
3667;SDS011;24099;47.102;15.440;2022-12-18T08:08:08;0.90;;;0.90;;
3667;SDS011;24099;47.102;15.440;2022-12-18T08:10:36;1.27;;;1.17;;
3667;SDS011;24099;47.102;15.440;2022-12-18T08:13:06;0.80;;;0.80;;
3667;SDS011;24099;47.102;15.440;2022-12-18T08:15:33;0.80;;;0.80;;
3667;SDS011;24099;47.102;15.440;2022-12-18T08:18:01;1.83;;;1.67;;
3667;SDS011;24099;47.102;15.440;2022-12-18T08:20:29;1.02;;;1.02;;
3667;SDS011;24099;47.102;15.440;2022-12-18T08:22:58;3.65;;;1.50;;
3667;SDS011;24099;47.102;15.440;2022-12-18T08:25:25;1.00;;;1.00;;
3667;SDS011;24099;47.102;15.440;2022-12-18T08:27:53;0.90;;;0.88;;
3667;SDS011;24099;47.102;15.440;2022-12-18T08:30:23;2.63;;;1.00;;
3667;SDS011;24099;47.102;15.440;2022-12-18T08:32:51;1.17;;;1.17;;
3667;SDS011;24099;47.102;15.440;2022-12-18T08:35:19;0.88;;;0.85;;
3667;SDS011;24099;47.102;15.440;2022-12-18T08:37:47;0.45;;;0.45;;
3667;SDS011;24099;47.102;15.440;2022-12-18T08:40:14;1.33;;;1.10;;
3667;SDS011;24099;47.102;15.440;2022-12-18T08:42:43;2.50;;;1.20;;
3667;SDS011;24099;47.102;15.440;2022-12-18T08:45:29;1.38;;;0.82;;
3667;SDS011;24099;47.102;15.440;2022-12-18T08:47:57;1.20;;;1.10;;
3667;SDS011;24099;47.102;15.440;2022-12-18T08:50:25;1.27;;;1.13;;
3667;SDS011;24099;47.102;15.440;2022-12-18T08:52:53;0.93;;;0.93;;
3667;SDS011;24099;47.102;15.440;2022-12-18T08:55:22;1.92;;;1.65;;
3667;SDS011;24099;47.102;15.440;2022-12-18T08:57:50;2.10;;;1.42;;
3667;SDS011;24099;47.102;15.440;2022-12-18T09:00:18;0.82;;;0.80;;
3667;SDS011;24099;47.102;15.440;2022-12-18T09:02:48;1.00;;;0.98;;
3667;SDS011;24099;47.102;15.440;2022-12-18T09:05:15;1.45;;;1.35;;
3667;SDS011;24099;47.102;15.440;2022-12-18T09:07:44;1.50;;;1.33;;
3667;SDS011;24099;47.102;15.440;2022-12-18T09:10:12;2.78;;;1.58;;
3667;SDS011;24099;47.102;15.440;2022-12-18T09:12:39;1.75;;;1.42;;
3667;SDS011;24099;47.102;15.440;2022-12-18T09:15:07;2.42;;;1.08;;
3667;SDS011;24099;47.102;15.440;2022-12-18T09:17:35;1.77;;;0.90;;
3667;SDS011;24099;47.102;15.440;2022-12-18T09:20:05;3.40;;;1.90;;
3667;SDS011;24099;47.102;15.440;2022-12-18T09:22:34;5.25;;;1.48;;
3667;SDS011;24099;47.102;15.440;2022-12-18T09:25:01;0.60;;;0.60;;
3667;SDS011;24099;47.102;15.440;2022-12-18T09:27:32;3.10;;;1.52;;
3667;SDS011;24099;47.102;15.440;2022-12-18T09:30:00;1.42;;;1.27;;
3667;SDS011;24099;47.102;15.440;2022-12-18T09:32:28;2.97;;;1.35;;
3667;SDS011;24099;47.102;15.440;2022-12-18T09:34:56;1.45;;;1.35;;
3667;SDS011;24099;47.102;15.440;2022-12-18T09:37:25;2.53;;;1.23;;
3667;SDS011;24099;47.102;15.440;2022-12-18T09:39:53;3.92;;;1.45;;
3667;SDS011;24099;47.102;15.440;2022-12-18T09:42:21;0.70;;;0.70;;
3667;SDS011;24099;47.102;15.440;2022-12-18T09:44:49;3.03;;;1.83;;
3667;SDS011;24099;47.102;15.440;2022-12-18T09:47:20;1.10;;;1.10;;
3667;SDS011;24099;47.102;15.440;2022-12-18T09:49:53;0.68;;;0.68;;
3667;SDS011;24099;47.102;15.440;2022-12-18T09:52:26;2.65;;;2.05;;
3667;SDS011;24099;47.102;15.440;2022-12-18T09:55:00;1.50;;;1.40;;
3667;SDS011;24099;47.102;15.440;2022-12-18T09:57:33;1.30;;;1.25;;
3667;SDS011;24099;47.102;15.440;2022-12-18T10:00:15;3.45;;;1.63;;
3667;SDS011;24099;47.102;15.440;2022-12-18T10:02:46;1.65;;;1.48;;
3667;SDS011;24099;47.102;15.440;2022-12-18T10:05:16;0.70;;;0.70;;
3667;SDS011;24099;47.102;15.440;2022-12-18T10:07:49;1.08;;;0.90;;
3667;SDS011;24099;47.102;15.440;2022-12-18T10:10:27;3.20;;;0.93;;
3667;SDS011;24099;47.102;15.440;2022-12-18T10:13:06;1.65;;;1.38;;
3667;SDS011;24099;47.102;15.440;2022-12-18T10:15:40;1.65;;;1.52;;
3667;SDS011;24099;47.102;15.440;2022-12-18T10:18:21;1.80;;;1.08;;
3667;SDS011;24099;47.102;15.440;2022-12-18T10:20:54;3.53;;;1.73;;
3667;SDS011;24099;47.102;15.440;2022-12-18T10:23:28;2.65;;;1.65;;
3667;SDS011;24099;47.102;15.440;2022-12-18T10:26:06;2.15;;;1.50;;
3667;SDS011;24099;47.102;15.440;2022-12-18T10:28:36;1.17;;;1.10;;
3667;SDS011;24099;47.102;15.440;2022-12-18T10:31:05;2.90;;;2.47;;
3667;SDS011;24099;47.102;15.440;2022-12-18T10:33:33;6.53;;;2.92;;
3667;SDS011;24099;47.102;15.440;2022-12-18T10:36:02;5.75;;;3.55;;
3667;SDS011;24099;47.102;15.440;2022-12-18T10:38:33;5.95;;;2.47;;
3667;SDS011;24099;47.102;15.440;2022-12-18T10:41:01;3.17;;;2.90;;
3667;SDS011;24099;47.102;15.440;2022-12-18T10:43:31;3.88;;;2.30;;
3667;SDS011;24099;47.102;15.440;2022-12-18T10:46:01;2.38;;;2.15;;
3667;SDS011;24099;47.102;15.440;2022-12-18T10:48:51;1.65;;;1.55;;
3667;SDS011;24099;47.102;15.440;2022-12-18T10:51:21;4.65;;;2.92;;
3667;SDS011;24099;47.102;15.440;2022-12-18T10:53:53;2.28;;;1.95;;
3667;SDS011;24099;47.102;15.440;2022-12-18T10:56:22;4.55;;;1.88;;
3667;SDS011;24099;47.102;15.440;2022-12-18T10:58:56;7.47;;;1.98;;
3667;SDS011;24099;47.102;15.440;2022-12-18T11:01:26;4.65;;;1.92;;
3667;SDS011;24099;47.102;15.440;2022-12-18T11:04:01;2.38;;;2.03;;
3667;SDS011;24099;47.102;15.440;2022-12-18T11:06:35;6.00;;;3.08;;
3667;SDS011;24099;47.102;15.440;2022-12-18T11:11:51;2.80;;;1.85;;
3667;SDS011;24099;47.102;15.440;2022-12-18T11:14:22;3.38;;;1.77;;
3667;SDS011;24099;47.102;15.440;2022-12-18T11:16:51;6.53;;;3.17;;
3667;SDS011;24099;47.102;15.440;2022-12-18T11:19:22;5.00;;;1.92;;
3667;SDS011;24099;47.102;15.440;2022-12-18T11:21:56;4.47;;;2.38;;
3667;SDS011;24099;47.102;15.440;2022-12-18T11:24:27;5.47;;;2.38;;
3667;SDS011;24099;47.102;15.440;2022-12-18T11:26:57;3.55;;;1.88;;
3667;SDS011;24099;47.102;15.440;2022-12-18T11:29:34;5.60;;;3.00;;
3667;SDS011;24099;47.102;15.440;2022-12-18T11:35:01;7.55;;;3.03;;
3667;SDS011;24099;47.102;15.440;2022-12-18T11:37:37;4.32;;;2.55;;
3667;SDS011;24099;47.102;15.440;2022-12-18T11:40:09;5.00;;;2.70;;
3667;SDS011;24099;47.102;15.440;2022-12-18T11:42:42;6.63;;;2.53;;
3667;SDS011;24099;47.102;15.440;2022-12-18T11:45:23;12.80;;;3.58;;
3667;SDS011;24099;47.102;15.440;2022-12-18T11:47:56;6.80;;;3.13;;
3667;SDS011;24099;47.102;15.440;2022-12-18T11:50:29;8.50;;;2.35;;
3667;SDS011;24099;47.102;15.440;2022-12-18T11:53:08;2.35;;;2.13;;
3667;SDS011;24099;47.102;15.440;2022-12-18T11:55:41;4.55;;;2.67;;
3667;SDS011;24099;47.102;15.440;2022-12-18T11:58:38;7.30;;;3.67;;
3667;SDS011;24099;47.102;15.440;2022-12-18T12:01:27;7.75;;;2.03;;
3667;SDS011;24099;47.102;15.440;2022-12-18T12:04:16;4.95;;;2.67;;
3667;SDS011;24099;47.102;15.440;2022-12-18T12:07:12;6.53;;;2.53;;
3667;SDS011;24099;47.102;15.440;2022-12-18T12:09:52;5.78;;;2.65;;
3667;SDS011;24099;47.102;15.440;2022-12-18T12:12:30;6.30;;;3.45;;
3667;SDS011;24099;47.102;15.440;2022-12-18T12:17:45;9.60;;;3.03;;
3667;SDS011;24099;47.102;15.440;2022-12-18T12:20:19;2.78;;;2.03;;
3667;SDS011;24099;47.102;15.440;2022-12-18T12:22:57;7.57;;;2.33;;
3667;SDS011;24099;47.102;15.440;2022-12-18T12:25:33;2.45;;;1.48;;
3667;SDS011;24099;47.102;15.440;2022-12-18T12:28:11;2.78;;;2.58;;
3667;SDS011;24099;47.102;15.440;2022-12-18T12:30:55;4.20;;;2.88;;
3667;SDS011;24099;47.102;15.440;2022-12-18T12:33:32;12.90;;;2.78;;
3667;SDS011;24099;47.102;15.440;2022-12-18T12:36:07;2.63;;;2.35;;
3667;SDS011;24099;47.102;15.440;2022-12-18T12:38:43;8.90;;;3.60;;
3667;SDS011;24099;47.102;15.440;2022-12-18T12:41:16;2.53;;;2.00;;
3667;SDS011;24099;47.102;15.440;2022-12-18T12:44:07;5.32;;;3.65;;
3667;SDS011;24099;47.102;15.440;2022-12-18T12:46:41;2.20;;;2.05;;
3667;SDS011;24099;47.102;15.440;2022-12-18T12:49:11;7.57;;;3.47;;
3667;SDS011;24099;47.102;15.440;2022-12-18T12:51:43;3.92;;;2.40;;
3667;SDS011;24099;47.102;15.440;2022-12-18T12:54:12;4.60;;;3.20;;
3667;SDS011;24099;47.102;15.440;2022-12-18T12:56:46;2.03;;;1.85;;
3667;SDS011;24099;47.102;15.440;2022-12-18T12:59:22;5.47;;;3.17;;
3667;SDS011;24099;47.102;15.440;2022-12-18T13:01:57;5.22;;;2.92;;
3667;SDS011;24099;47.102;15.440;2022-12-18T13:04:34;19.85;;;4.13;;
3667;SDS011;24099;47.102;15.440;2022-12-18T13:07:10;8.77;;;3.23;;
3667;SDS011;24099;47.102;15.440;2022-12-18T13:12:30;3.55;;;2.47;;
3667;SDS011;24099;47.102;15.440;2022-12-18T13:15:20;3.10;;;2.72;;
3667;SDS011;24099;47.102;15.440;2022-12-18T13:17:56;4.13;;;2.80;;
3667;SDS011;24099;47.102;15.440;2022-12-18T13:20:32;5.55;;;3.08;;
3667;SDS011;24099;47.102;15.440;2022-12-18T13:23:17;4.97;;;2.95;;
3667;SDS011;24099;47.102;15.440;2022-12-18T13:25:53;5.07;;;2.90;;
3667;SDS011;24099;47.102;15.440;2022-12-18T13:28:22;5.40;;;2.28;;
3667;SDS011;24099;47.102;15.440;2022-12-18T13:31:12;6.03;;;3.88;;
3667;SDS011;24099;47.102;15.440;2022-12-18T13:33:42;9.15;;;2.60;;
3667;SDS011;24099;47.102;15.440;2022-12-18T13:36:15;4.53;;;2.65;;
3667;SDS011;24099;47.102;15.440;2022-12-18T13:51:02;7.13;;;2.83;;
3667;SDS011;24099;47.102;15.440;2022-12-18T13:53:36;15.07;;;4.47;;
3667;SDS011;24099;47.102;15.440;2022-12-18T13:56:08;4.25;;;2.45;;
3667;SDS011;24099;47.102;15.440;2022-12-18T13:58:41;5.47;;;2.55;;
3667;SDS011;24099;47.102;15.440;2022-12-18T14:01:15;4.43;;;3.05;;
3667;SDS011;24099;47.102;15.440;2022-12-18T14:03:51;5.15;;;2.75;;
3667;SDS011;24099;47.102;15.440;2022-12-18T14:06:38;7.95;;;3.78;;
3667;SDS011;24099;47.102;15.440;2022-12-18T14:09:09;10.52;;;4.03;;
3667;SDS011;24099;47.102;15.440;2022-12-18T14:11:40;6.93;;;2.95;;
3667;SDS011;24099;47.102;15.440;2022-12-18T14:14:13;26.08;;;6.47;;
3667;SDS011;24099;47.102;15.440;2022-12-18T14:16:42;18.77;;;6.15;;
3667;SDS011;24099;47.102;15.440;2022-12-18T14:19:13;8.07;;;3.15;;
3667;SDS011;24099;47.102;15.440;2022-12-18T14:21:45;13.50;;;4.25;;
3667;SDS011;24099;47.102;15.440;2022-12-18T14:24:14;4.97;;;3.10;;
3667;SDS011;24099;47.102;15.440;2022-12-18T14:26:44;5.32;;;3.00;;
3667;SDS011;24099;47.102;15.440;2022-12-18T14:29:23;11.05;;;3.20;;
3667;SDS011;24099;47.102;15.440;2022-12-18T14:32:06;12.30;;;4.40;;
3667;SDS011;24099;47.102;15.440;2022-12-18T14:34:38;6.20;;;3.88;;
3667;SDS011;24099;47.102;15.440;2022-12-18T14:37:07;10.30;;;4.40;;
3667;SDS011;24099;47.102;15.440;2022-12-18T14:39:37;5.93;;;3.10;;
3667;SDS011;24099;47.102;15.440;2022-12-18T14:42:05;3.50;;;2.75;;
3667;SDS011;24099;47.102;15.440;2022-12-18T14:44:36;3.67;;;2.63;;
3667;SDS011;24099;47.102;15.440;2022-12-18T14:47:04;3.25;;;2.38;;
3667;SDS011;24099;47.102;15.440;2022-12-18T14:49:42;12.87;;;6.00;;
3667;SDS011;24099;47.102;15.440;2022-12-18T14:52:17;9.63;;;5.07;;
3667;SDS011;24099;47.102;15.440;2022-12-18T14:54:50;7.78;;;3.25;;
3667;SDS011;24099;47.102;15.440;2022-12-18T14:57:20;6.75;;;2.45;;
3667;SDS011;24099;47.102;15.440;2022-12-18T14:59:50;6.13;;;3.15;;
3667;SDS011;24099;47.102;15.440;2022-12-18T15:02:18;7.30;;;3.00;;
3667;SDS011;24099;47.102;15.440;2022-12-18T15:05:01;4.32;;;2.65;;
3667;SDS011;24099;47.102;15.440;2022-12-18T15:07:39;6.38;;;3.75;;
3667;SDS011;24099;47.102;15.440;2022-12-18T15:10:11;4.53;;;2.58;;
3667;SDS011;24099;47.102;15.440;2022-12-18T15:12:41;9.15;;;2.42;;
3667;SDS011;24099;47.102;15.440;2022-12-18T15:18:12;4.35;;;2.60;;
3667;SDS011;24099;47.102;15.440;2022-12-18T15:20:44;4.18;;;2.92;;
3667;SDS011;24099;47.102;15.440;2022-12-18T15:23:17;9.80;;;2.38;;
3667;SDS011;24099;47.102;15.440;2022-12-18T15:25:47;3.45;;;2.05;;
3667;SDS011;24099;47.102;15.440;2022-12-18T15:28:22;4.68;;;2.83;;
3667;SDS011;24099;47.102;15.440;2022-12-18T15:31:02;5.05;;;3.40;;
3667;SDS011;24099;47.102;15.440;2022-12-18T15:33:33;3.47;;;2.88;;
3667;SDS011;24099;47.102;15.440;2022-12-18T15:36:04;6.82;;;3.05;;
3667;SDS011;24099;47.102;15.440;2022-12-18T15:38:35;2.45;;;2.10;;
3667;SDS011;24099;47.102;15.440;2022-12-18T15:41:03;15.80;;;3.47;;